Time;durP1;ratioP1;P1;durP2;ratioP2;P2;SDS_P1;SDS_P2;PMS_P1;PMS_P2;Temp;Humidity;BMP_temperature;BMP_pressure;BME280_temperature;BME280_humidity;BME280_pressure;Samples;Min_cycle;Max_cycle;Signal;HPM_P1;HPM_P2
2022/05/26 00:02:10;;;;;;;;;;;;;;;;;;5054884;28;19912;-34
2022/05/26 00:04:36;;;;;;;;;;;;;;;;;;5054979;28;20308;-31
2022/05/26 00:07:02;;;;;;;;;;;;;;;;;;5037103;28;20294;-30
2022/05/26 00:09:28;;;;;;;;;;;;;;;;;;5054900;28;19969;-31
2022/05/26 00:11:54;;;;;;;;;;;;;;;;;;5054567;28;19974;-27
2022/05/26 00:14:20;;;;;;;;;;;;;;;;;;5054604;28;19920;-30
2022/05/26 00:16:46;;;;;;;;;;;;;;;;;;5054852;28;19920;-34
2022/05/26 00:19:12;;;;;;;;;;;;;;;;;;5054850;28;19920;-33
2022/05/26 00:21:38;;;;;;;;;;;;;;;;;;5054612;28;19909;-31
2022/05/26 00:24:04;;;;;;;;;;;;;;;;;;5054461;28;20342;-27
2022/05/26 00:26:30;;;;;;;;;;;;;;;;;;5054268;28;19917;-27
2022/05/26 00:28:56;;;;;;;;;;;;;;;;;;5036758;28;20363;-33
2022/05/26 00:31:22;;;;;;;;;;;;;;;;;;5054726;28;19923;-31
2022/05/26 00:33:48;;;;;;;;;;;;;;;;;;5054411;28;19924;-33
2022/05/26 00:36:14;;;;;;;;;;;;;;;;;;5054329;28;19912;-32
2022/05/26 00:38:40;;;;;;;;;;;;;;;;;;5054422;28;19909;-29
2022/05/26 00:41:06;;;;;;;;;;;;;;;;;;5054392;28;20328;-30
2022/05/26 00:43:32;;;;;;;;;;;;;;;;;;5054325;28;19909;-30
2022/05/26 00:45:58;;;;;;;;;;;;;;;;;;5057072;28;19934;-30
2022/05/26 00:48:24;;;;;;;;;;;;;;;;;;5058424;28;19916;-28
2022/05/26 00:50:50;;;;;;;;;;;;;;;;;;5040590;28;20300;-30
2022/05/26 00:53:17;;;;;;;;;;;;;;;;;;5058013;28;19913;-33
2022/05/26 00:55:43;;;;;;;;;;;;;;;;;;5058070;28;19916;-27
2022/05/26 00:58:09;;;;;;;;;;;;;;;;;;5059120;28;19962;-33
2022/05/26 01:00:35;;;;;;;;;;;;;;;;;;5057898;28;19928;-32
2022/05/26 01:03:01;;;;;;;;;;;;;;;;;;5057914;28;19909;-32
2022/05/26 01:05:27;;;;;;;;;;;;;;;;;;5058183;28;19913;-28
2022/05/26 01:07:53;;;;;;;;;;;;;;;;;;5040193;28;19920;-35
2022/05/26 01:10:19;;;;;;;;;;;;;;;;;;5058080;28;19927;-32
2022/05/26 01:12:45;;;;;;;;;;;;;;;;;;5057745;28;20287;-28
2022/05/26 01:15:11;;;;;;;;;;;;;;;;;;5057794;28;20266;-32
2022/05/26 01:17:37;;;;;;;;;;;;;;;;;;5057650;28;19916;-30
2022/05/26 01:20:03;;;;;;;;;;;;;;;;;;5057856;28;19924;-30
2022/05/26 01:22:29;;;;;;;;;;;;;;;;;;5057594;28;20323;-30
2022/05/26 01:24:55;;;;;;;;;;;;;;;;;;5057879;28;20416;-32
2022/05/26 01:27:22;;;;;;;;;;;;;;;;;;5057162;28;20004;-32
2022/05/26 01:29:48;;;;;;;;;;;;;;;;;;5057703;28;19913;-33
2022/05/26 01:32:14;;;;;;;;;;;;;;;;;;5057315;28;19920;-27
2022/05/26 01:34:41;;;;;;;;;;;;;;;;;;5057388;28;19913;-30
2022/05/26 01:37:07;;;;;;;;;;;;;;;;;;5057592;28;20338;-32
2022/05/26 01:39:33;;;;;;;;;;;;;;;;;;5057255;28;19948;-31
2022/05/26 01:41:59;;;;;;;;;;;;;;;;;;5057447;28;19924;-31
2022/05/26 01:44:25;;;;;;;;;;;;;;;;;;5057140;28;19921;-29
2022/05/26 01:46:51;;;;;;;;;;;;;;;;;;5056995;28;19912;-31
2022/05/26 01:49:17;;;;;;;;;;;;;;;;;;5057325;28;19924;-34
2022/05/26 01:51:43;;;;;;;;;;;;;;;;;;5057045;28;19908;-32
2022/05/26 01:54:09;;;;;;;;;;;;;;;;;;5057271;28;19969;-27
2022/05/26 01:56:35;;;;;;;;;;;;;;;;;;5038316;28;20391;-33
2022/05/26 01:59:01;;;;;;;;;;;;;;;;;;5056858;28;19924;-33
2022/05/26 02:01:27;;;;;;;;;;;;;;;;;;5056910;28;19920;-32
2022/05/26 02:03:53;;;;;;;;;;;;;;;;;;5056849;28;19962;-31
2022/05/26 02:06:19;;;;;;;;;;;;;;;;;;5056766;28;19917;-33
2022/05/26 02:08:45;;;;;;;;;;;;;;;;;;5056953;28;20240;-28
2022/05/26 02:11:11;;;;;;;;;;;;;;;;;;5056702;28;19912;-32
2022/05/26 02:13:37;;;;;;;;;;;;;;;;;;5056574;28;19920;-33
2022/05/26 02:16:03;;;;;;;;;;;;;;;;;;5056808;28;19912;-34
2022/05/26 02:18:29;;;;;;;;;;;;;;;;;;5056507;28;19913;-30
2022/05/26 02:20:55;;;;;;;;;;;;;;;;;;5056706;28;20281;-30
2022/05/26 02:23:23;;;;;;;;;;;;;;;;;;5056378;28;20287;-28
2022/05/26 02:25:49;;;;;;;;;;;;;;;;;;5056469;28;20252;-32
2022/05/26 02:28:15;;;;;;;;;;;;;;;;;;5056516;28;19925;-27
2022/05/26 02:30:41;;;;;;;;;;;;;;;;;;5056264;28;19912;-27
2022/05/26 02:33:07;;;;;;;;;;;;;;;;;;5056185;28;20247;-30
2022/05/26 02:35:33;;;;;;;;;;;;;;;;;;5056438;28;19913;-34
2022/05/26 02:37:59;;;;;;;;;;;;;;;;;;5056454;28;19919;-29
2022/05/26 02:40:25;;;;;;;;;;;;;;;;;;5056060;28;19917;-33
2022/05/26 02:42:51;;;;;;;;;;;;;;;;;;5056257;28;19931;-33
2022/05/26 02:45:17;;;;;;;;;;;;;;;;;;5055972;28;19920;-28
2022/05/26 02:47:43;;;;;;;;;;;;;;;;;;5056165;28;19913;-33
2022/05/26 02:50:09;;;;;;;;;;;;;;;;;;5056185;28;20000;-33
2022/05/26 02:52:35;;;;;;;;;;;;;;;;;;5055831;28;20020;-34
2022/05/26 02:55:01;;;;;;;;;;;;;;;;;;5056067;28;19912;-33
2022/05/26 02:57:27;;;;;;;;;;;;;;;;;;5055838;28;19927;-32
2022/05/26 02:59:53;;;;;;;;;;;;;;;;;;5055708;28;19944;-35
2022/05/26 03:02:19;;;;;;;;;;;;;;;;;;5055645;28;19962;-28
2022/05/26 03:04:45;;;;;;;;;;;;;;;;;;5055622;28;20248;-29
2022/05/26 03:07:11;;;;;;;;;;;;;;;;;;5055678;28;19917;-29
2022/05/26 03:09:37;;;;;;;;;;;;;;;;;;5055483;28;19917;-28
2022/05/26 03:12:03;;;;;;;;;;;;;;;;;;5055485;28;20306;-33
2022/05/26 03:14:29;;;;;;;;;;;;;;;;;;5055739;28;19912;-34
2022/05/26 03:16:55;;;;;;;;;;;;;;;;;;5055708;28;19924;-29
2022/05/26 03:19:21;;;;;;;;;;;;;;;;;;5055660;28;20251;-32
2022/05/26 03:21:47;;;;;;;;;;;;;;;;;;5055601;28;19952;-30
2022/05/26 03:24:13;;;;;;;;;;;;;;;;;;5055797;28;19924;-29
2022/05/26 03:26:39;;;;;;;;;;;;;;;;;;5055253;28;20359;-35
2022/05/26 03:29:05;;;;;;;;;;;;;;;;;;5055189;28;19932;-26
2022/05/26 03:31:31;;;;;;;;;;;;;;;;;;5055164;28;19913;-32
2022/05/26 03:42:11;;;;;;;;;;;;;;;;;;5055518;28;19932;-35
2022/05/26 03:44:37;;;;;;;;;;;;;;;;;;5054990;28;20335;-33
2022/05/26 03:47:03;;;;;;;;;;;;;;;;;;5054906;28;20001;-29
2022/05/26 03:49:29;;;;;;;;;;;;;;;;;;5055184;28;20342;-33
2022/05/26 03:51:57;;;;;;;;;;;;;;;;;;5054861;28;19920;-28
2022/05/26 03:54:23;;;;;;;;;;;;;;;;;;5054917;28;19912;-32
2022/05/26 03:56:49;;;;;;;;;;;;;;;;;;5055037;28;20449;-31
2022/05/26 03:59:15;;;;;;;;;;;;;;;;;;5055087;28;19980;-33
2022/05/26 04:04:24;;;;;;;;;;;;;;;;;;4932384;26;19924;-25
2022/05/26 04:06:51;;;;;;;;;;;;;;;;;;5056756;28;20342;-25
2022/05/26 04:09:18;;;;;;;;;;;;;;;;;;5056911;28;19913;-26
2022/05/26 04:11:45;;;;;;;;;;;;;;;;;;5039116;28;19944;-25
2022/05/26 04:14:11;;;;;;;;;;;;;;;;;;5055538;28;19920;-26
2022/05/26 04:16:37;;;;;;;;;;;;;;;;;;5054636;28;20083;-26
2022/05/26 04:19:03;;;;;;;;;;;;;;;;;;5054829;28;19913;-26
2022/05/26 04:21:29;;;;;;;;;;;;;;;;;;5058362;28;19915;-26
2022/05/26 04:23:55;;;;;;;;;;;;;;;;;;5058600;28;20056;-26
2022/05/26 04:26:21;;;;;;;;;;;;;;;;;;5041063;28;19913;-26
2022/05/26 04:28:47;;;;;;;;;;;;;;;;;;5058805;28;20362;-26
2022/05/26 04:31:13;;;;;;;;;;;;;;;;;;5058547;28;19913;-26
2022/05/26 04:33:39;;;;;;;;;;;;;;;;;;5058478;28;19909;-26
2022/05/26 04:36:05;;;;;;;;;;;;;;;;;;5058680;28;19913;-26
2022/05/26 04:38:31;;;;;;;;;;;;;;;;;;5058694;28;19979;-26
2022/05/26 04:40:57;;;;;;;;;;;;;;;;;;5058348;28;20259;-26
2022/05/26 04:43:23;;;;;;;;;;;;;;;;;;5058291;28;19912;-26
2022/05/26 04:45:50;;;;;;;;;;;;;;;;;;5040640;28;19971;-26
2022/05/26 04:48:17;;;;;;;;;;;;;;;;;;5058155;28;19943;-26
2022/05/26 04:50:43;;;;;;;;;;;;;;;;;;5058444;28;19924;-26
2022/05/26 04:53:09;;;;;;;;;;;;;;;;;;5058097;28;20007;-26
2022/05/26 04:55:35;;;;;;;;;;;;;;;;;;5058087;28;19956;-26
2022/05/26 04:58:01;;;;;;;;;;;;;;;;;;5058326;28;19935;-26
2022/05/26 05:00:27;;;;;;;;;;;;;;;;;;5059020;28;19913;-26
2022/05/26 05:02:53;;;;;;;;;;;;;;;;;;5057721;28;19921;-26
2022/05/26 05:05:19;;;;;;;;;;;;;;;;;;5040321;28;19921;-26
2022/05/26 05:07:45;;;;;;;;;;;;;;;;;;5057772;28;20293;-26
2022/05/26 05:10:11;;;;;;;;;;;;;;;;;;5058048;28;19988;-26
2022/05/26 05:12:40;;;;;;;;;;;;;;;;;;5057955;28;19955;-26
2022/05/26 05:15:06;;;;;;;;;;;;;;;;;;5057664;28;19913;-26
2022/05/26 05:17:32;;;;;;;;;;;;;;;;;;5057972;28;20016;-26
2022/05/26 05:19:58;;;;;;;;;;;;;;;;;;5057865;28;19924;-26
2022/05/26 05:22:24;;;;;;;;;;;;;;;;;;5058032;28;19909;-26
2022/05/26 05:24:50;;;;;;;;;;;;;;;;;;5057534;28;19920;-26
2022/05/26 05:27:16;;;;;;;;;;;;;;;;;;5057727;28;19964;-26
2022/05/26 05:29:42;;;;;;;;;;;;;;;;;;5057422;28;19938;-26
2022/05/26 05:32:08;;;;;;;;;;;;;;;;;;5057287;28;19991;-26
2022/05/26 05:34:34;;;;;;;;;;;;;;;;;;5057374;28;20078;-26
2022/05/26 05:37:00;;;;;;;;;;;;;;;;;;5057335;28;19970;-26
2022/05/26 05:39:26;;;;;;;;;;;;;;;;;;5039715;28;20343;-26
2022/05/26 05:41:54;;;;;;;;;;;;;;;;;;5057389;28;19913;-26
2022/05/26 05:44:20;;;;;;;;;;;;;;;;;;5057201;28;19913;-26
2022/05/26 05:46:57;;;;;;;;;;;;;;;;;;5057091;28;19913;-26
2022/05/26 05:49:23;;;;;;;;;;;;;;;;;;5039524;28;19935;-26
2022/05/26 05:51:49;;;;;;;;;;;;;;;;;;5057196;28;19931;-26
2022/05/26 05:54:15;;;;;;;;;;;;;;;;;;5056954;28;19912;-26
2022/05/26 05:56:41;;;;;;;;;;;;;;;;;;5056987;28;19974;-26
2022/05/26 05:59:07;;;;;;;;;;;;;;;;;;5056877;28;19978;-26
2022/05/26 06:01:33;;;;;;;;;;;;;;;;;;5056705;28;20003;-26
2022/05/26 06:04:00;;;;;;;;;;;;;;;;;;5056506;28;19921;-26
2022/05/26 06:06:26;;;;;;;;;;;;;;;;;;5056757;28;19913;-26
2022/05/26 06:08:52;;;;;;;;;;;;;;;;;;5056949;28;20462;-26
2022/05/26 06:11:18;;;;;;;;;;;;;;;;;;5056692;28;20282;-26
2022/05/26 06:13:44;;;;;;;;;;;;;;;;;;5056652;28;19940;-26
2022/05/26 06:16:11;;;;;;;;;;;;;;;;;;5056854;28;20402;-26
2022/05/26 06:18:37;;;;;;;;;;;;;;;;;;5056596;28;19909;-26
2022/05/26 06:21:03;;;;;;;;;;;;;;;;;;5056750;28;20339;-26
2022/05/26 06:23:29;;;;;;;;;;;;;;;;;;5056282;28;19913;-26
2022/05/26 06:25:55;;;;;;;;;;;;;;;;;;5056645;28;20004;-26
2022/05/26 06:31:05;;;;;;;;;;;;;;;;;;5056370;28;19920;-26
2022/05/26 06:39:00;;;;;;;;;;;;;;;;;;5056519;28;19920;-26
2022/05/26 06:44:11;;;;;;;;;;;;;;;;;;5055608;28;19974;-26
2022/05/26 06:46:37;;;;;;;;;;;;;;;;;;5055990;28;19923;-26
2022/05/26 06:49:04;;;;;;;;;;;;;;;;;;5056100;28;20015;-26
2022/05/26 06:51:31;;;;;;;;;;;;;;;;;;5055825;28;19919;-26
2022/05/26 06:53:57;;;;;;;;;;;;;;;;;;5056011;28;19913;-26
2022/05/26 06:56:23;;;;;;;;;;;;;;;;;;5056083;28;19952;-26
2022/05/26 06:58:49;;;;;;;;;;;;;;;;;;5056441;28;19913;-26
2022/05/26 07:01:14;;;;;;;;;;;;;;;;;;5055702;28;20043;-26
2022/05/26 07:03:40;;;;;;;;;;;;;;;;;;5055519;28;19924;-26
2022/05/26 07:06:07;;;;;;;;;;;;;;;;;;5055887;28;19913;-26
2022/05/26 07:08:33;;;;;;;;;;;;;;;;;;5055535;28;19970;-26
2022/05/26 07:11:00;;;;;;;;;;;;;;;;;;5055592;28;20038;-26
2022/05/26 07:13:26;;;;;;;;;;;;;;;;;;5037851;28;19968;-26
2022/05/26 07:15:52;;;;;;;;;;;;;;;;;;5055363;28;19915;-26
2022/05/26 07:18:19;;;;;;;;;;;;;;;;;;5057459;28;19912;-25
2022/05/26 07:20:46;;;;;;;;;;;;;;;;;;5057763;28;19962;-24
2022/05/26 07:23:13;;;;;;;;;;;;;;;;;;5057408;28;19912;-24
2022/05/26 07:25:40;;;;;;;;;;;;;;;;;;5040229;28;19909;-25
2022/05/26 07:28:08;;;;;;;;;;;;;;;;;;5057310;28;19917;-25
2022/05/26 07:30:35;;;;;;;;;;;;;;;;;;5057420;28;19971;-25
2022/05/26 07:33:02;;;;;;;;;;;;;;;;;;5040107;28;19916;-25
2022/05/26 07:35:29;;;;;;;;;;;;;;;;;;5057454;28;19939;-25
2022/05/26 07:43:26;;;;;;;;;;;;;;;;;;5057381;28;19959;-25
2022/05/26 07:45:52;;;;;;;;;;;;;;;;;;5039782;28;19912;-25
2022/05/26 07:48:20;;;;;;;;;;;;;;;;;;5057494;28;19913;-25
2022/05/26 07:50:46;;;;;;;;;;;;;;;;;;5039677;28;20008;-25
2022/05/26 07:53:13;;;;;;;;;;;;;;;;;;5057492;28;20047;-25
2022/05/26 07:55:42;;;;;;;;;;;;;;;;;;5056509;28;20000;-25
2022/05/26 07:58:10;;;;;;;;;;;;;;;;;;5057059;28;19943;-25
2022/05/26 08:00:37;;;;;;;;;;;;;;;;;;5057662;28;19986;-26
2022/05/26 08:03:05;;;;;;;;;;;;;;;;;;5056998;28;19920;-25
2022/05/26 08:05:33;;;;;;;;;;;;;;;;;;5057144;28;20012;-25
2022/05/26 08:08:00;;;;;;;;;;;;;;;;;;5039477;28;19940;-25
2022/05/26 08:10:27;;;;;;;;;;;;;;;;;;5057214;28;19912;-25
2022/05/26 08:12:54;;;;;;;;;;;;;;;;;;5057585;28;19908;-25
2022/05/26 08:15:22;;;;;;;;;;;;;;;;;;5039275;28;19912;-25
2022/05/26 08:17:48;;;;;;;;;;;;;;;;;;5057245;28;19984;-25
2022/05/26 08:20:15;;;;;;;;;;;;;;;;;;5056932;28;19913;-24
2022/05/26 08:22:43;;;;;;;;;;;;;;;;;;5039768;28;19909;-25
2022/05/26 08:25:10;;;;;;;;;;;;;;;;;;5057058;28;19921;-25
2022/05/26 08:27:37;;;;;;;;;;;;;;;;;;5039321;28;19923;-25
2022/05/26 08:30:05;;;;;;;;;;;;;;;;;;5056883;28;19923;-25
2022/05/26 08:32:32;;;;;;;;;;;;;;;;;;5057616;28;19948;-25
2022/05/26 08:34:59;;;;;;;;;;;;;;;;;;5056923;28;19989;-25
2022/05/26 08:37:26;;;;;;;;;;;;;;;;;;5056773;28;20382;-25
2022/05/26 08:39:53;;;;;;;;;;;;;;;;;;5057223;28;19959;-25
2022/05/26 08:42:20;;;;;;;;;;;;;;;;;;5057134;28;19909;-25
2022/05/26 08:44:47;;;;;;;;;;;;;;;;;;5039445;28;19924;-25
2022/05/26 08:47:14;;;;;;;;;;;;;;;;;;5039129;28;19919;-25
2022/05/26 08:49:42;;;;;;;;;;;;;;;;;;5039150;28;19913;-25
2022/05/26 08:52:09;;;;;;;;;;;;;;;;;;5039234;28;20361;-25
2022/05/26 08:54:36;;;;;;;;;;;;;;;;;;5057531;28;19912;-25
2022/05/26 08:57:03;;;;;;;;;;;;;;;;;;5056717;28;19909;-25
2022/05/26 08:59:31;;;;;;;;;;;;;;;;;;5057030;28;19924;-25
2022/05/26 09:01:59;;;;;;;;;;;;;;;;;;5056873;28;19913;-25
2022/05/26 09:04:25;;;;;;;;;;;;;;;;;;5056927;28;19920;-25
2022/05/26 09:15:08;;;;;;;;;;;;;;;;;;5060850;28;20327;-25
2022/05/26 09:17:35;;;;;;;;;;;;;;;;;;5060184;28;19919;-25
2022/05/26 09:20:05;;;;;;;;;;;;;;;;;;5060511;28;19974;-25
2022/05/26 09:22:32;;;;;;;;;;;;;;;;;;5059973;28;19917;-25
2022/05/26 09:24:59;;;;;;;;;;;;;;;;;;5060459;28;19923;-25
2022/05/26 09:27:27;;;;;;;;;;;;;;;;;;5059803;28;19913;-25
2022/05/26 09:29:54;;;;;;;;;;;;;;;;;;5060206;28;20442;-25
2022/05/26 09:32:22;;;;;;;;;;;;;;;;;;5060068;28;20366;-24
2022/05/26 09:34:48;;;;;;;;;;;;;;;;;;5059566;28;19924;-25
2022/05/26 09:37:15;;;;;;;;;;;;;;;;;;5042305;28;19909;-25
2022/05/26 09:39:43;;;;;;;;;;;;;;;;;;5042017;28;19924;-26
2022/05/26 09:42:10;;;;;;;;;;;;;;;;;;5042081;28;19909;-25
2022/05/26 09:44:37;;;;;;;;;;;;;;;;;;5059480;28;19920;-25
2022/05/26 09:47:04;;;;;;;;;;;;;;;;;;5059863;28;19909;-25
2022/05/26 09:49:32;;;;;;;;;;;;;;;;;;5059656;28;19923;-25
2022/05/26 09:51:59;;;;;;;;;;;;;;;;;;5059406;28;20255;-25
2022/05/26 09:54:27;;;;;;;;;;;;;;;;;;5059678;28;19936;-25
2022/05/26 09:56:54;;;;;;;;;;;;;;;;;;5059668;28;19920;-25
2022/05/26 09:59:21;;;;;;;;;;;;;;;;;;5059788;28;19917;-25
2022/05/26 10:01:48;;;;;;;;;;;;;;;;;;5041593;28;19912;-25
2022/05/26 10:04:17;;;;;;;;;;;;;;;;;;5059705;28;20310;-25
2022/05/26 10:06:43;;;;;;;;;;;;;;;;;;5059077;28;19916;-25
2022/05/26 10:09:11;;;;;;;;;;;;;;;;;;5041694;28;19916;-25
2022/05/26 10:11:39;;;;;;;;;;;;;;;;;;5059120;28;20344;-25
2022/05/26 10:14:06;;;;;;;;;;;;;;;;;;5058862;28;19920;-25
2022/05/26 10:16:33;;;;;;;;;;;;;;;;;;5059139;28;20004;-25
2022/05/26 10:19:00;;;;;;;;;;;;;;;;;;5058692;28;19912;-25
2022/05/26 10:21:27;;;;;;;;;;;;;;;;;;5059052;28;20003;-25
2022/05/26 10:23:54;;;;;;;;;;;;;;;;;;5059097;28;19913;-25
2022/05/26 10:26:22;;;;;;;;;;;;;;;;;;5058872;28;19912;-25
2022/05/26 10:28:49;;;;;;;;;;;;;;;;;;5041039;28;20020;-25
2022/05/26 10:31:17;;;;;;;;;;;;;;;;;;5058610;28;20279;-25
2022/05/26 10:33:45;;;;;;;;;;;;;;;;;;5059291;28;19970;-25
2022/05/26 10:36:14;;;;;;;;;;;;;;;;;;5058816;28;20304;-25
2022/05/26 10:38:41;;;;;;;;;;;;;;;;;;5058709;28;19913;-25
2022/05/26 10:41:08;;;;;;;;;;;;;;;;;;5058717;28;19950;-25
2022/05/26 10:43:35;;;;;;;;;;;;;;;;;;5040821;28;19924;-25
2022/05/26 10:46:03;;;;;;;;;;;;;;;;;;5058529;28;20259;-25
2022/05/26 10:48:30;;;;;;;;;;;;;;;;;;5057969;28;19935;-25
2022/05/26 10:50:57;;;;;;;;;;;;;;;;;;5058968;28;19913;-25
2022/05/26 10:53:30;;;;;;;;;;;;;;;;;;5057953;28;19971;-25
2022/05/26 10:55:57;;;;;;;;;;;;;;;;;;5040559;28;19948;-25
2022/05/26 10:58:25;;;;;;;;;;;;;;;;;;5058004;28;20343;-25
2022/05/26 11:00:57;;;;;;;;;;;;;;;;;;5057677;28;20239;-25
2022/05/26 11:03:24;;;;;;;;;;;;;;;;;;5037025;28;19971;-24
2022/05/26 11:05:51;;;;;;;;;;;;;;;;;;5038350;28;19909;-25
2022/05/26 11:08:18;;;;;;;;;;;;;;;;;;5037146;28;20416;-25
2022/05/26 11:10:44;;;;;;;;;;;;;;;;;;5036851;28;20268;-25
2022/05/26 11:13:12;;;;;;;;;;;;;;;;;;5037985;28;19913;-25
2022/05/26 11:18:24;;;;;;;;;;;;;;;;;;5038301;28;19933;-25
2022/05/26 11:20:56;;;;;;;;;;;;;;;;;;5036707;28;19917;-25
2022/05/26 11:23:23;;;;;;;;;;;;;;;;;;5037904;28;19920;-25
2022/05/26 11:25:50;;;;;;;;;;;;;;;;;;5038409;28;20221;-25
2022/05/26 11:28:17;;;;;;;;;;;;;;;;;;5037763;28;20351;-25
2022/05/26 11:36:13;;;;;;;;;;;;;;;;;;5037712;28;19936;-25
2022/05/26 11:38:39;;;;;;;;;;;;;;;;;;5037691;28;20275;-25
2022/05/26 11:41:06;;;;;;;;;;;;;;;;;;5037276;28;19936;-25
2022/05/26 11:43:33;;;;;;;;;;;;;;;;;;5037056;28;19913;-25
2022/05/26 11:46:00;;;;;;;;;;;;;;;;;;5036488;28;19924;-25
2022/05/26 11:48:29;;;;;;;;;;;;;;;;;;5036282;28;20244;-25
2022/05/26 11:50:56;;;;;;;;;;;;;;;;;;5037382;28;19936;-25
2022/05/26 11:53:23;;;;;;;;;;;;;;;;;;5037072;28;19962;-25
2022/05/26 11:55:50;;;;;;;;;;;;;;;;;;5036570;28;19909;-25
2022/05/26 11:58:16;;;;;;;;;;;;;;;;;;5037231;28;19913;-25
2022/05/26 12:00:46;;;;;;;;;;;;;;;;;;5037706;28;19979;-25
2022/05/26 12:03:13;;;;;;;;;;;;;;;;;;5046003;28;19952;-25
2022/05/26 12:05:41;;;;;;;;;;;;;;;;;;5057685;28;19947;-26
2022/05/26 12:08:08;;;;;;;;;;;;;;;;;;5057678;28;20008;-25
2022/05/26 12:10:34;;;;;;;;;;;;;;;;;;5057546;28;19959;-25
2022/05/26 12:13:02;;;;;;;;;;;;;;;;;;5057458;28;20267;-25
2022/05/26 12:15:29;;;;;;;;;;;;;;;;;;5057328;28;19913;-25
2022/05/26 12:17:56;;;;;;;;;;;;;;;;;;5056806;28;19993;-25
2022/05/26 12:20:24;;;;;;;;;;;;;;;;;;5057350;28;19948;-25
2022/05/26 12:22:51;;;;;;;;;;;;;;;;;;5057653;28;19909;-25
2022/05/26 12:25:18;;;;;;;;;;;;;;;;;;5039355;28;19913;-24
2022/05/26 12:27:45;;;;;;;;;;;;;;;;;;5056815;28;19920;-24
2022/05/26 12:30:13;;;;;;;;;;;;;;;;;;5057049;28;19921;-24
2022/05/26 12:32:39;;;;;;;;;;;;;;;;;;5057097;28;20256;-25
2022/05/26 12:35:07;;;;;;;;;;;;;;;;;;5056626;28;19951;-24
2022/05/26 12:37:34;;;;;;;;;;;;;;;;;;5056897;28;20247;-25
2022/05/26 12:40:01;;;;;;;;;;;;;;;;;;5056916;28;19923;-24
2022/05/26 12:42:28;;;;;;;;;;;;;;;;;;5060149;28;19980;-24
2022/05/26 12:44:56;;;;;;;;;;;;;;;;;;5061092;28;19920;-25
2022/05/26 12:47:23;;;;;;;;;;;;;;;;;;5043240;28;20015;-25
2022/05/26 12:49:51;;;;;;;;;;;;;;;;;;5060758;28;19919;-25
2022/05/26 12:52:18;;;;;;;;;;;;;;;;;;5042799;28;19913;-30
2022/05/26 12:54:45;;;;;;;;;;;;;;;;;;5042886;28;19940;-25
2022/05/26 12:57:12;;;;;;;;;;;;;;;;;;5060793;28;19924;-25
2022/05/26 12:59:40;;;;;;;;;;;;;;;;;;5060367;28;19947;-24
2022/05/26 13:02:08;;;;;;;;;;;;;;;;;;5042990;28;19962;-24
2022/05/26 13:04:35;;;;;;;;;;;;;;;;;;5061089;28;20367;-24
2022/05/26 13:07:04;;;;;;;;;;;;;;;;;;5060398;28;19912;-25
2022/05/26 13:09:31;;;;;;;;;;;;;;;;;;5060305;28;20263;-25
2022/05/26 13:11:59;;;;;;;;;;;;;;;;;;5060262;28;19944;-25
2022/05/26 13:14:28;;;;;;;;;;;;;;;;;;5060564;28;19920;-25
2022/05/26 13:16:55;;;;;;;;;;;;;;;;;;5042500;28;19913;-25
2022/05/26 13:19:22;;;;;;;;;;;;;;;;;;5060150;28;20263;-24
2022/05/26 13:21:49;;;;;;;;;;;;;;;;;;5042339;28;19913;-24
2022/05/26 13:24:16;;;;;;;;;;;;;;;;;;5060296;28;20030;-25
2022/05/26 13:26:43;;;;;;;;;;;;;;;;;;5060006;28;20092;-24
2022/05/26 13:29:10;;;;;;;;;;;;;;;;;;5059735;28;20023;-24
2022/05/26 13:43:02;;;;;;;;;;;;;;;;;;5479003;22;19932;-24
2022/05/26 13:51:15;;;;;;;;;;;;;;;;;;5060058;28;19923;-25
2022/05/26 13:53:45;;;;;;;;;;;;;;;;;;5058470;28;19912;-25
2022/05/26 13:56:12;;;;;;;;;;;;;;;;;;5059043;28;19912;-25
2022/05/26 13:58:45;;;;;;;;;;;;;;;;;;5058903;28;19913;-25
2022/05/26 14:01:14;;;;;;;;;;;;;;;;;;5057933;28;20008;-25
2022/05/26 14:09:24;;;;;;;;;;;;;;;;;;5058347;28;20457;-25
2022/05/26 14:11:51;;;;;;;;;;;;;;;;;;5057842;28;19916;-25
2022/05/26 14:14:18;;;;;;;;;;;;;;;;;;5058169;28;19928;-25
2022/05/26 14:16:45;;;;;;;;;;;;;;;;;;5057821;28;19920;-25
2022/05/26 14:19:12;;;;;;;;;;;;;;;;;;5058197;28;20266;-25
2022/05/26 14:21:39;;;;;;;;;;;;;;;;;;5057621;28;19913;-25
2022/05/26 14:24:06;;;;;;;;;;;;;;;;;;5057544;28;20284;-25
2022/05/26 14:26:33;;;;;;;;;;;;;;;;;;5059389;28;19975;-25
2022/05/26 14:29:01;;;;;;;;;;;;;;;;;;5042080;28;19913;-25
2022/05/26 14:31:28;;;;;;;;;;;;;;;;;;5058712;28;20357;-25
2022/05/26 14:33:56;;;;;;;;;;;;;;;;;;5058770;28;19912;-24
2022/05/26 14:36:23;;;;;;;;;;;;;;;;;;5040681;28;19908;-32
2022/05/26 14:38:50;;;;;;;;;;;;;;;;;;5059099;28;19924;-31
2022/05/26 14:41:18;;;;;;;;;;;;;;;;;;5058716;28;20235;-24
2022/05/26 14:43:45;;;;;;;;;;;;;;;;;;5037544;28;19921;-25
2022/05/26 14:46:12;;;;;;;;;;;;;;;;;;5038304;28;20004;-24
2022/05/26 14:48:41;;;;;;;;;;;;;;;;;;5038600;28;19921;-24
2022/05/26 14:51:08;;;;;;;;;;;;;;;;;;5038341;28;19924;-25
2022/05/26 14:56:21;;;;;;;;;;;;;;;;;;5038420;28;19967;-24
2022/05/26 14:58:48;;;;;;;;;;;;;;;;;;5038350;28;19909;-25
2022/05/26 15:01:14;;;;;;;;;;;;;;;;;;5037171;28;19913;-25
2022/05/26 15:03:41;;;;;;;;;;;;;;;;;;5037767;28;19909;-25
2022/05/26 15:06:08;;;;;;;;;;;;;;;;;;5037608;28;20332;-24
2022/05/26 15:08:45;;;;;;;;;;;;;;;;;;5036856;28;19917;-24
2022/05/26 15:11:12;;;;;;;;;;;;;;;;;;5038533;28;19916;-24
2022/05/26 15:13:40;;;;;;;;;;;;;;;;;;5037655;28;19931;-24
2022/05/26 15:16:07;;;;;;;;;;;;;;;;;;5037528;28;20003;-25
2022/05/26 15:18:34;;;;;;;;;;;;;;;;;;5037381;28;19913;-25
2022/05/26 15:21:02;;;;;;;;;;;;;;;;;;5038320;28;19916;-24
2022/05/26 15:23:29;;;;;;;;;;;;;;;;;;5037968;28;19983;-25
2022/05/26 15:26:08;;;;;;;;;;;;;;;;;;5037243;28;20012;-24
2022/05/26 15:28:35;;;;;;;;;;;;;;;;;;5037852;28;19917;-24
2022/05/26 15:31:03;;;;;;;;;;;;;;;;;;5037440;28;20007;-25
2022/05/26 15:33:30;;;;;;;;;;;;;;;;;;5037674;28;19913;-24
2022/05/26 15:35:57;;;;;;;;;;;;;;;;;;5036596;28;20295;-25
2022/05/26 15:38:24;;;;;;;;;;;;;;;;;;5036266;28;20334;-24
2022/05/26 15:40:51;;;;;;;;;;;;;;;;;;5037777;28;20035;-24
2022/05/26 15:43:18;;;;;;;;;;;;;;;;;;5036252;28;20332;-25
2022/05/26 15:45:46;;;;;;;;;;;;;;;;;;5037912;28;19913;-25
2022/05/26 15:48:13;;;;;;;;;;;;;;;;;;5037499;28;19986;-25
2022/05/26 15:50:39;;;;;;;;;;;;;;;;;;5037535;28;20324;-25
2022/05/26 15:53:07;;;;;;;;;;;;;;;;;;5036498;28;20259;-24
2022/05/26 15:55:34;;;;;;;;;;;;;;;;;;5037613;28;19983;-25
2022/05/26 15:58:01;;;;;;;;;;;;;;;;;;5037475;28;19909;-25
2022/05/26 16:00:28;;;;;;;;;;;;;;;;;;5037245;28;19959;-24
2022/05/26 16:02:55;;;;;;;;;;;;;;;;;;5037340;28;19909;-24
2022/05/26 16:05:22;;;;;;;;;;;;;;;;;;5037129;28;19917;-25
2022/05/26 16:07:50;;;;;;;;;;;;;;;;;;5037357;28;19913;-25
2022/05/26 16:10:16;;;;;;;;;;;;;;;;;;5037137;28;19921;-24
2022/05/26 16:12:43;;;;;;;;;;;;;;;;;;5037052;28;19909;-25
2022/05/26 16:15:11;;;;;;;;;;;;;;;;;;5035433;28;20399;-24
2022/05/26 16:17:39;;;;;;;;;;;;;;;;;;5037158;28;19956;-24
2022/05/26 16:20:06;;;;;;;;;;;;;;;;;;5037427;28;20011;-25
2022/05/26 16:22:33;;;;;;;;;;;;;;;;;;5036268;28;19913;-25
2022/05/26 16:25:00;;;;;;;;;;;;;;;;;;5036921;28;20334;-25
2022/05/26 16:27:27;;;;;;;;;;;;;;;;;;5036046;28;19971;-24
2022/05/26 16:29:54;;;;;;;;;;;;;;;;;;5037021;28;19913;-25
2022/05/26 16:32:21;;;;;;;;;;;;;;;;;;5037491;28;20287;-24
2022/05/26 16:36:40;;;;;;;;;;;;;;;;;;5037332;28;19968;-25
2022/05/26 16:37:35;;;;;;;;;;;;;;;;;;5036975;28;19921;-25
2022/05/26 16:40:02;;;;;;;;;;;;;;;;;;5036019;28;19914;-25
2022/05/26 16:42:29;;;;;;;;;;;;;;;;;;5037223;28;20382;-24
2022/05/26 16:44:56;;;;;;;;;;;;;;;;;;5055607;28;19933;-25
2022/05/26 16:47:23;;;;;;;;;;;;;;;;;;5039132;28;19948;-25
2022/05/26 16:49:51;;;;;;;;;;;;;;;;;;5040019;28;19924;-25
2022/05/26 16:52:18;;;;;;;;;;;;;;;;;;5039119;28;20287;-25
2022/05/26 16:54:45;;;;;;;;;;;;;;;;;;5056650;28;20027;-24
2022/05/26 16:57:12;;;;;;;;;;;;;;;;;;5038786;28;19920;-25
2022/05/26 16:59:39;;;;;;;;;;;;;;;;;;5056727;28;20389;-25
2022/05/26 17:02:07;;;;;;;;;;;;;;;;;;5056550;28;19916;-25
2022/05/26 17:04:36;;;;;;;;;;;;;;;;;;5056471;28;19913;-25
2022/05/26 17:07:03;;;;;;;;;;;;;;;;;;5056792;28;19909;-25
2022/05/26 17:09:29;;;;;;;;;;;;;;;;;;5039437;28;20031;-24
2022/05/26 17:11:56;;;;;;;;;;;;;;;;;;5038744;28;19948;-25
2022/05/26 17:22:40;;;;;;;;;;;;;;;;;;5056723;28;20354;-24
2022/05/26 17:25:07;;;;;;;;;;;;;;;;;;5057237;28;19913;-24
2022/05/26 17:27:34;;;;;;;;;;;;;;;;;;5058341;28;19908;-24
2022/05/26 17:30:01;;;;;;;;;;;;;;;;;;5060179;28;19920;-25
2022/05/26 17:32:28;;;;;;;;;;;;;;;;;;5042463;28;19921;-24
2022/05/26 17:34:55;;;;;;;;;;;;;;;;;;5060104;28;19952;-25
2022/05/26 17:37:22;;;;;;;;;;;;;;;;;;5059872;28;19977;-25
2022/05/26 17:39:49;;;;;;;;;;;;;;;;;;5059953;28;19943;-24
2022/05/26 17:42:16;;;;;;;;;;;;;;;;;;5041834;28;19912;-24
2022/05/26 17:44:43;;;;;;;;;;;;;;;;;;5059491;28;19920;-24
2022/05/26 17:47:10;;;;;;;;;;;;;;;;;;5060084;28;19920;-25
2022/05/26 17:49:37;;;;;;;;;;;;;;;;;;5059794;28;20020;-25
2022/05/26 17:52:05;;;;;;;;;;;;;;;;;;5059526;28;19913;-24
2022/05/26 17:54:32;;;;;;;;;;;;;;;;;;5059811;28;19919;-25
2022/05/26 17:56:59;;;;;;;;;;;;;;;;;;5042082;28;19912;-25
2022/05/26 18:02:12;;;;;;;;;;;;;;;;;;5027904;28;19972;-24
2022/05/26 18:04:39;;;;;;;;;;;;;;;;;;5059318;28;19913;-24